This is the latest recevied weather packets stored in our database for station/object KJ5FA-9. If no packets are shown the sender has not sent any weather packets the latest 10 day(s).
| Time | Temp. | Humidity | Pressure | Rain* | Wind** | Luminosity | Snow |
|---|---|---|---|---|---|---|---|
| 1787440460 | 29.44° C | 52% | 1014.5 hPa | 0 mm | - | - | - |
| 1787438960 | 31.67° C | 47% | 1014.3 hPa | 0 mm | - | - | - |
| 1787437458 | 38.33° C | 31% | 1012.7 hPa | 0 mm | - | - | - |
| 1787435960 | 39.44° C | 28% | 1013.2 hPa | 0 mm | - | - | - |
| 1787434460 | 40° C | 27% | 1012.8 hPa | 0 mm | - | - | - |
| 1787432962 | 40° C | 27% | 1012.8 hPa | 0 mm | - | - | - |
| 1787431458 | 40° C | 26% | 1013.5 hPa | 0 mm | - | - | - |
| 1787429958 | 40° C | 26% | 1013.9 hPa | 0 mm | - | - | - |
| 1787428458 | 39.44° C | 27% | 1014.1 hPa | 0 mm | - | - | - |
| 1787426960 | 40.56° C | 26% | 1014.6 hPa | 0 mm | - | - | - |
| 1787425460 | 38.89° C | 33% | 1015 hPa | 0 mm | - | - | - |
| 1787422460 | 38.89° C | 33% | 1015.6 hPa | 0 mm | - | - | - |
| 1787420960 | 39.44° C | 28% | 1015.9 hPa | 0 mm | - | - | - |
| 1787420468 | 39.44° C | 29% | 1016.3 hPa | 0 mm | 0.45 m/s, 293° | - | - |
| 1787419458 | 38.89° C | 30% | 1016.4 hPa | 0 mm | - | - | - |
| 1787418668 | 39.44° C | 30% | 1016.8 hPa | 0 mm | 0 m/s | - | - |
| 1787417960 | 38.33° C | 33% | 1017 hPa | 0 mm | - | - | - |
| 1787416868 | 37.78° C | 36% | 1017.1 hPa | 0 mm | 0.89 m/s, 343° | - | - |
| 1787416460 | 37.22° C | 41% | 1017.1 hPa | 0 mm | - | - | - |
| 1787415068 | 35.56° C | 43% | 1017.3 hPa | 0 mm | 1.79 m/s, 346° | - | - |
| 1787414960 | 35.56° C | 44% | 1017.3 hPa | 0 mm | - | - | - |
| 1787413460 | 33.89° C | 51% | 1017.4 hPa | 0 mm | - | - | - |
| 1787413268 | 33.89° C | 52% | 1017.4 hPa | 0 mm | 0.89 m/s, 299° | - | - |
| 1787411960 | 32.22° C | 57% | 1017.3 hPa | 0 mm | - | - | - |
| 1787411468 | 31.67° C | 58% | 1017.4 hPa | 0 mm | 0 m/s | - | - |
* Rain latest hour (hover to see other rain measurements)
** Current wind speed in m/s (hover to see current wind gust speed)